Time;durP1;ratioP1;P1;durP2;ratioP2;P2;SDS_P1;SDS_P2;PMS_P1;PMS_P2;Temp;Humidity;BMP_temperature;BMP_pressure;BME280_temperature;BME280_humidity;BME280_pressure;Samples;Min_cycle;Max_cycle;Signal;HPM_P1;HPM_P2
2021/07/22 00:00:28;;;;;;;;;;;;;;;19.25;70.94;102245.97;5051222;28;19924;-47
2021/07/22 00:02:55;;;;;;;;;;;;;;;19.15;71.43;102245.88;5052578;28;19927;-46
2021/07/22 00:05:22;;;;;;;;;;;;;;;19.13;71.13;102246.97;5052527;28;19920;-52
2021/07/22 00:07:49;;;;;;;;;;;;;;;19.12;71.09;102245.28;5051968;28;19978;-48
2021/07/22 00:10:16;;;;;;;;;;;;;;;19.08;71.47;102242.00;5050741;28;19924;-48
2021/07/22 00:12:43;;;;;;;;;;;;;;;19.16;71.28;102241.41;5052821;28;20470;-47
2021/07/22 00:15:10;;;;;;;;;;;;;;;19.16;71.30;102236.09;5049180;28;19929;-48
2021/07/22 00:17:37;;;;;;;;;;;;;;;19.11;71.65;102241.75;5048596;28;19955;-47
2021/07/22 00:20:05;;;;;;;;;;;;;;;19.06;71.63;102242.13;5054685;28;19924;-52
2021/07/22 00:22:34;;;;;;;;;;;;;;;18.97;71.99;102237.53;5052801;28;20343;-51
2021/07/22 00:25:01;;;;;;;;;;;;;;;18.90;72.25;102233.66;5054959;28;20330;-52
2021/07/22 00:27:28;;;;;;;;;;;;;;;18.88;72.65;102233.78;5053400;28;19924;-51
2021/07/22 00:29:54;;;;;;;;;;;;;;;18.78;72.55;102234.59;5053763;28;19982;-51
2021/07/22 00:32:21;;;;;;;;;;;;;;;18.81;72.67;102231.69;5055179;28;20381;-52
2021/07/22 00:34:48;;;;;;;;;;;;;;;18.87;72.56;102242.72;5052000;28;19921;-53
2021/07/22 00:37:14;;;;;;;;;;;;;;;18.77;73.22;102247.06;5055270;28;19929;-53
2021/07/22 00:39:41;;;;;;;;;;;;;;;18.70;73.32;102238.69;5056741;28;19927;-53
2021/07/22 00:42:08;;;;;;;;;;;;;;;18.65;73.46;102240.88;5056236;28;19970;-52
2021/07/22 00:44:35;;;;;;;;;;;;;;;18.55;74.08;102231.91;5054164;28;20429;-52
2021/07/22 00:47:01;;;;;;;;;;;;;;;18.54;74.10;102225.72;5051682;28;19925;-52
2021/07/22 00:49:28;;;;;;;;;;;;;;;18.61;74.06;102230.56;5056249;28;19925;-51
2021/07/22 00:51:55;;;;;;;;;;;;;;;18.57;74.29;102233.47;5055197;28;20640;-50
2021/07/22 00:54:21;;;;;;;;;;;;;;;18.48;74.61;102236.00;5053486;28;19924;-52
2021/07/22 00:56:48;;;;;;;;;;;;;;;18.55;74.74;102232.72;5055045;28;20371;-49
2021/07/22 00:59:15;;;;;;;;;;;;;;;18.57;74.65;102227.31;5052850;28;19952;-50
2021/07/22 01:01:41;;;;;;;;;;;;;;;18.52;74.88;102226.81;5051766;28;20295;-52
2021/07/22 01:04:08;;;;;;;;;;;;;;;18.36;75.47;102224.47;5055912;28;19959;-50
2021/07/22 01:06:35;;;;;;;;;;;;;;;18.33;75.71;102217.56;5055883;28;20261;-50
2021/07/22 01:09:01;;;;;;;;;;;;;;;18.36;75.70;102227.97;5055738;28;19960;-49
2021/07/22 01:11:28;;;;;;;;;;;;;;;18.24;76.30;102223.59;5054509;28;19921;-50
2021/07/22 01:13:56;;;;;;;;;;;;;;;18.22;76.21;102230.84;5053227;28;19921;-50
2021/07/22 01:16:23;;;;;;;;;;;;;;;18.24;76.07;102221.78;5050876;28;19924;-54
2021/07/22 01:18:50;;;;;;;;;;;;;;;18.23;76.39;102221.91;5053690;28;20027;-54
2021/07/22 01:21:16;;;;;;;;;;;;;;;18.21;76.32;102215.84;5055002;28;19920;-51
2021/07/22 01:23:43;;;;;;;;;;;;;;;18.16;76.63;102216.19;5055551;28;19921;-53
2021/07/22 01:26:09;;;;;;;;;;;;;;;18.10;76.78;102215.81;5055611;28;19986;-53
2021/07/22 01:28:36;;;;;;;;;;;;;;;18.03;77.20;102218.94;5054286;28;19925;-53
2021/07/22 01:31:03;;;;;;;;;;;;;;;17.95;77.56;102223.97;5055400;28;20050;-52
2021/07/22 01:33:29;;;;;;;;;;;;;;;17.93;77.47;102217.94;5053025;28;19921;-52
2021/07/22 01:35:56;;;;;;;;;;;;;;;17.93;77.44;102214.41;5051541;28;19925;-53
2021/07/22 01:38:23;;;;;;;;;;;;;;;17.96;77.55;102216.88;5054107;28;20358;-53
2021/07/22 01:40:49;;;;;;;;;;;;;;;17.90;77.68;102211.00;5055286;28;19925;-53
2021/07/22 01:43:16;;;;;;;;;;;;;;;17.96;77.53;102217.69;5054835;28;20582;-51
2021/07/22 01:45:43;;;;;;;;;;;;;;;17.83;77.57;102220.41;5051959;28;19921;-51
2021/07/22 01:48:09;;;;;;;;;;;;;;;17.79;78.02;102213.59;5052397;28;19927;-48
2021/07/22 01:50:36;;;;;;;;;;;;;;;17.74;77.77;102199.81;5055018;28;19925;-51
2021/07/22 01:53:03;;;;;;;;;;;;;;;17.71;78.08;102215.97;5055212;28;19928;-52
2021/07/22 01:55:30;;;;;;;;;;;;;;;17.69;78.35;102212.59;5052766;28;19966;-52
2021/07/22 01:57:58;;;;;;;;;;;;;;;17.64;78.61;102215.59;5050710;28;19956;-53
2021/07/22 02:00:25;;;;;;;;;;;;;;;17.65;79.00;102211.97;5053691;28;19920;-51
2021/07/22 02:02:52;;;;;;;;;;;;;;;17.63;78.71;102210.38;5054632;28;20341;-50
2021/07/22 02:05:19;;;;;;;;;;;;;;;17.66;78.90;102210.16;5052694;28;19921;-51
2021/07/22 02:07:45;;;;;;;;;;;;;;;17.59;79.07;102207.09;5051657;28;19920;-53
2021/07/22 02:10:12;;;;;;;;;;;;;;;17.61;78.92;102215.81;5053765;28;19920;-52
2021/07/22 02:12:39;;;;;;;;;;;;;;;17.70;78.66;102214.28;5054163;28;20354;-52
2021/07/22 02:15:06;;;;;;;;;;;;;;;17.64;78.61;102210.28;5053302;28;19925;-52
2021/07/22 02:17:32;;;;;;;;;;;;;;;17.57;79.06;102214.34;5052807;28;19920;-53
2021/07/22 02:19:59;;;;;;;;;;;;;;;17.50;79.22;102210.44;5051620;28;20448;-50
2021/07/22 02:22:26;;;;;;;;;;;;;;;17.53;79.11;102212.84;5052198;28;19939;-48
2021/07/22 02:24:52;;;;;;;;;;;;;;;17.48;79.23;102215.00;5051708;28;19920;-54
2021/07/22 02:27:19;;;;;;;;;;;;;;;17.42;79.71;102215.47;5050412;28;19952;-50
2021/07/22 02:29:46;;;;;;;;;;;;;;;17.34;80.24;102216.00;5054111;28;19921;-52
2021/07/22 02:32:13;;;;;;;;;;;;;;;17.27;80.67;102206.78;5054344;28;19924;-49
2021/07/22 02:34:39;;;;;;;;;;;;;;;17.20;81.22;102217.00;5053707;28;19921;-51
2021/07/22 02:37:06;;;;;;;;;;;;;;;17.22;81.22;102210.63;5050436;28;19933;-51
2021/07/22 02:39:35;;;;;;;;;;;;;;;17.28;81.01;102217.31;5050930;28;19925;-53
2021/07/22 02:42:02;;;;;;;;;;;;;;;17.23;81.42;102222.09;5053267;28;20019;-51
2021/07/22 02:44:29;;;;;;;;;;;;;;;17.15;82.16;102229.78;5053878;28;19942;-51
2021/07/22 02:46:55;;;;;;;;;;;;;;;17.10;82.39;102222.13;5053872;28;19990;-51
2021/07/22 02:49:22;;;;;;;;;;;;;;;17.15;82.51;102221.78;5054183;28;20421;-49
2021/07/22 02:51:49;;;;;;;;;;;;;;;17.14;82.66;102218.31;5053480;28;20415;-51
2021/07/22 02:54:15;;;;;;;;;;;;;;;17.14;83.18;102217.44;5049900;28;19924;-51
2021/07/22 02:56:42;;;;;;;;;;;;;;;17.15;82.76;102229.78;5051653;28;19920;-50
2021/07/22 02:59:09;;;;;;;;;;;;;;;17.10;83.07;102232.78;5053667;28;19920;-51
2021/07/22 03:01:35;;;;;;;;;;;;;;;17.16;82.99;102231.47;5053761;28;20276;-49
2021/07/22 03:04:02;;;;;;;;;;;;;;;17.16;83.24;102234.13;5051110;28;19921;-49
2021/07/22 03:06:29;;;;;;;;;;;;;;;17.07;83.76;102235.66;5051296;28;19984;-51
2021/07/22 03:08:55;;;;;;;;;;;;;;;17.03;84.17;102226.19;5053767;28;20259;-46
2021/07/22 03:11:22;;;;;;;;;;;;;;;17.01;83.98;102228.94;5053477;28;19920;-48
2021/07/22 03:13:49;;;;;;;;;;;;;;;17.00;83.89;102231.72;5053633;28;19931;-52
2021/07/22 03:16:15;;;;;;;;;;;;;;;17.05;83.82;102229.59;5052034;28;20573;-48
2021/07/22 03:18:42;;;;;;;;;;;;;;;17.10;83.47;102219.47;5053229;28;19921;-49
2021/07/22 03:21:11;;;;;;;;;;;;;;;17.09;83.35;102222.25;5052782;28;19921;-52
2021/07/22 03:23:37;;;;;;;;;;;;;;;17.09;83.38;102222.25;5052566;28;20394;-51
2021/07/22 03:26:04;;;;;;;;;;;;;;;17.13;83.13;102226.38;5052700;28;19926;-50
2021/07/22 03:28:31;;;;;;;;;;;;;;;17.05;83.49;102222.44;5052848;28;20402;-50
2021/07/22 03:30:57;;;;;;;;;;;;;;;17.04;83.59;102226.09;5052642;28;19921;-52
2021/07/22 03:33:24;;;;;;;;;;;;;;;17.05;83.50;102222.44;5052620;28;19924;-51
2021/07/22 03:35:51;;;;;;;;;;;;;;;17.02;83.58;102222.66;5051335;28;19931;-52
2021/07/22 03:38:18;;;;;;;;;;;;;;;16.99;83.78;102222.06;5049111;28;20001;-51
2021/07/22 03:40:44;;;;;;;;;;;;;;;16.93;84.06;102225.97;5050212;28;19921;-49
2021/07/22 03:43:11;;;;;;;;;;;;;;;16.93;83.81;102228.63;5051858;28;19932;-53
2021/07/22 03:45:37;;;;;;;;;;;;;;;16.91;83.99;102222.59;5052537;28;19921;-52
2021/07/22 03:48:04;;;;;;;;;;;;;;;16.98;83.60;102223.84;5052815;28;19924;-50
2021/07/22 03:50:31;;;;;;;;;;;;;;;16.92;83.69;102229.63;5052779;28;20390;-53
2021/07/22 03:52:57;;;;;;;;;;;;;;;16.85;84.14;102222.97;5052925;28;19927;-48
2021/07/22 03:55:25;;;;;;;;;;;;;;;16.89;83.86;102227.16;5052708;28;19927;-51
2021/07/22 03:57:51;;;;;;;;;;;;;;;16.87;84.03;102219.25;5052661;28;20293;-52
2021/07/22 04:00:18;;;;;;;;;;;;;;;16.87;83.76;102223.72;5033614;28;19921;-51
2021/07/22 04:02:45;;;;;;;;;;;;;;;16.84;83.41;102222.13;5048213;28;19921;-52
2021/07/22 04:05:12;;;;;;;;;;;;;;;16.76;83.95;102221.00;5052228;28;20284;-51
2021/07/22 04:07:38;;;;;;;;;;;;;;;16.75;83.85;102222.78;5050204;28;20789;-52
2021/07/22 04:10:05;;;;;;;;;;;;;;;16.71;84.20;102227.47;5050797;28;19921;-52
2021/07/22 04:12:32;;;;;;;;;;;;;;;16.70;84.23;102222.25;5052742;28;19920;-51
2021/07/22 04:14:59;;;;;;;;;;;;;;;16.72;83.98;102226.50;5052430;28;19928;-52
2021/07/22 04:17:29;;;;;;;;;;;;;;;16.70;84.18;102228.41;5047937;28;20016;-51
2021/07/22 04:19:56;;;;;;;;;;;;;;;16.66;84.37;102226.06;5050006;28;19921;-52
2021/07/22 04:22:23;;;;;;;;;;;;;;;16.72;83.96;102223.00;5052554;28;20028;-50
2021/07/22 04:24:49;;;;;;;;;;;;;;;16.74;83.88;102221.06;5052611;28;19951;-49
2021/07/22 04:27:16;;;;;;;;;;;;;;;16.85;83.46;102226.50;5052677;28;19921;-51
2021/07/22 04:29:43;;;;;;;;;;;;;;;16.84;83.46;102223.97;5051487;28;19928;-52
2021/07/22 04:32:10;;;;;;;;;;;;;;;16.89;83.22;102224.50;5052449;28;20453;-52
2021/07/22 04:34:36;;;;;;;;;;;;;;;16.87;83.18;102221.91;5052328;28;19921;-48
2021/07/22 04:37:04;;;;;;;;;;;;;;;16.83;83.34;102224.91;5050676;28;19990;-51
2021/07/22 04:39:31;;;;;;;;;;;;;;;16.80;83.42;102225.13;5048512;28;19951;-51
2021/07/22 04:41:57;;;;;;;;;;;;;;;16.90;83.23;102223.53;5050063;28;19976;-51
2021/07/22 04:44:26;;;;;;;;;;;;;;;16.86;83.30;102227.34;5052120;28;20383;-51
2021/07/22 04:46:53;;;;;;;;;;;;;;;16.89;83.66;102225.34;5051620;28;20287;-53
2021/07/22 04:49:20;;;;;;;;;;;;;;;16.89;83.41;102235.13;5052224;28;19921;-50
2021/07/22 04:51:47;;;;;;;;;;;;;;;16.90;83.55;102227.03;5052269;28;20337;-49
2021/07/22 04:54:14;;;;;;;;;;;;;;;16.91;83.29;102222.59;5050596;28;19920;-52
2021/07/22 04:56:41;;;;;;;;;;;;;;;16.95;83.77;102225.91;5051770;28;19924;-52
2021/07/22 04:59:07;;;;;;;;;;;;;;;17.01;83.05;102226.28;5050368;28;19921;-50
2021/07/22 05:01:34;;;;;;;;;;;;;;;17.01;83.28;102228.94;5050630;28;19924;-51
2021/07/22 05:04:01;;;;;;;;;;;;;;;17.05;83.25;102233.06;5050445;28;20179;-51
2021/07/22 05:06:27;;;;;;;;;;;;;;;17.03;82.91;102231.50;5052614;28;20375;-54
2021/07/22 05:08:54;;;;;;;;;;;;;;;16.99;82.98;102235.34;5054271;28;19921;-53
2021/07/22 05:11:21;;;;;;;;;;;;;;;16.99;83.35;102232.69;5055625;28;20276;-54
2021/07/22 05:13:48;;;;;;;;;;;;;;;17.01;83.06;102233.41;5055558;28;20007;-53
2021/07/22 05:16:15;;;;;;;;;;;;;;;16.99;83.41;102236.19;5053521;28;19978;-53
2021/07/22 05:18:41;;;;;;;;;;;;;;;17.03;83.21;102245.63;5051893;28;19925;-50
2021/07/22 05:21:08;;;;;;;;;;;;;;;17.10;83.18;102242.53;5053796;28;19920;-54
2021/07/22 05:23:35;;;;;;;;;;;;;;;17.15;83.02;102243.94;5055800;28;19966;-54
2021/07/22 05:26:03;;;;;;;;;;;;;;;17.17;83.25;102243.81;5055376;28;19925;-53
2021/07/22 05:28:30;;;;;;;;;;;;;;;17.22;82.63;102247.00;5054321;28;19990;-53
2021/07/22 05:30:57;;;;;;;;;;;;;;;17.20;83.10;102251.56;5054132;28;19975;-51
2021/07/22 05:33:24;;;;;;;;;;;;;;;17.20;83.12;102249.75;5055397;28;19927;-53
2021/07/22 05:35:51;;;;;;;;;;;;;;;17.29;82.91;102245.59;5055433;28;19952;-52
2021/07/22 05:38:17;;;;;;;;;;;;;;;17.33;83.03;102247.06;5055142;28;19927;-52
2021/07/22 05:40:44;;;;;;;;;;;;;;;17.35;82.75;102247.81;5034458;28;19924;-51
2021/07/22 05:43:10;;;;;;;;;;;;;;;17.34;82.96;102253.22;5051582;28;20355;-52
2021/07/22 05:45:37;;;;;;;;;;;;;;;17.40;82.66;102248.31;5054902;28;20414;-51
2021/07/22 05:48:04;;;;;;;;;;;;;;;17.53;82.70;102252.75;5054899;28;20322;-53
2021/07/22 05:50:31;;;;;;;;;;;;;;;17.57;82.20;102249.78;5053370;28;20011;-52
2021/07/22 05:52:58;;;;;;;;;;;;;;;17.59;81.96;102249.66;5051929;28;19921;-53
2021/07/22 05:55:28;;;;;;;;;;;;;;;17.59;81.93;102252.31;5054583;28;19921;-53
2021/07/22 05:57:54;;;;;;;;;;;;;;;17.65;81.96;102254.50;5055234;28;20437;-52
2021/07/22 06:00:21;;;;;;;;;;;;;;;17.75;81.19;102249.38;5054117;28;19925;-53
2021/07/22 06:02:48;;;;;;;;;;;;;;;17.80;80.88;102251.72;5049703;28;19927;-52
2021/07/22 06:05:14;;;;;;;;;;;;;;;17.87;81.85;102250.28;5053502;28;20441;-52
2021/07/22 06:07:41;;;;;;;;;;;;;;;17.97;80.86;102246.03;5054915;28;20330;-52
2021/07/22 06:10:08;;;;;;;;;;;;;;;18.11;80.45;102244.13;5054650;28;20379;-51
2021/07/22 06:12:34;;;;;;;;;;;;;;;18.16;80.59;102244.63;5054994;28;19964;-52
2021/07/22 06:15:01;;;;;;;;;;;;;;;18.23;79.37;102248.53;5054123;28;19932;-51
2021/07/22 06:17:27;;;;;;;;;;;;;;;18.30;78.99;102251.59;5052962;28;19947;-51
2021/07/22 06:19:54;;;;;;;;;;;;;;;18.41;79.43;102247.13;5053366;28;19920;-51
2021/07/22 06:22:21;;;;;;;;;;;;;;;18.59;78.93;102252.84;5054638;28;19921;-52
2021/07/22 06:24:47;;;;;;;;;;;;;;;18.63;78.36;102247.28;5054476;28;19920;-53
2021/07/22 06:27:14;;;;;;;;;;;;;;;18.71;78.86;102248.38;5036404;28;19920;-52
2021/07/22 06:29:41;;;;;;;;;;;;;;;18.81;78.32;102248.50;5054243;28;19928;-51
2021/07/22 06:32:08;;;;;;;;;;;;;;;18.92;78.03;102247.69;5053181;28;19970;-52
2021/07/22 06:34:34;;;;;;;;;;;;;;;19.00;77.72;102253.28;5052172;28;19931;-51
2021/07/22 06:37:01;;;;;;;;;;;;;;;19.07;76.62;102251.84;5051032;28;19931;-51
2021/07/22 06:39:35;;;;;;;;;;;;;;;19.13;76.29;102246.97;5054208;28;19925;-54
2021/07/22 06:42:03;;;;;;;;;;;;;;;19.24;75.90;102244.31;5054104;28;19925;-53
2021/07/22 06:44:29;;;;;;;;;;;;;;;19.34;75.53;102252.41;5052854;28;19970;-53
2021/07/22 06:46:56;;;;;;;;;;;;;;;19.49;75.16;102253.84;5052545;28;19921;-53
2021/07/22 06:49:23;;;;;;;;;;;;;;;19.59;75.66;102256.59;5050625;28;19928;-54
2021/07/22 06:51:51;;;;;;;;;;;;;;;19.74;75.48;102251.81;5050370;28;19928;-53
2021/07/22 06:54:18;;;;;;;;;;;;;;;19.84;74.35;102251.97;5054246;28;19943;-50
2021/07/22 06:56:45;;;;;;;;;;;;;;;19.85;73.51;102248.31;5053670;28;19921;-53
2021/07/22 06:59:11;;;;;;;;;;;;;;;19.91;72.60;102247.81;5053810;28;19921;-53
2021/07/22 07:01:38;;;;;;;;;;;;;;;20.04;72.53;102239.63;5052363;28;20302;-50
2021/07/22 07:04:05;;;;;;;;;;;;;;;20.15;72.09;102247.59;5053625;28;20384;-51
2021/07/22 07:06:35;;;;;;;;;;;;;;;20.31;71.65;102236.44;5050222;28;20410;-52
2021/07/22 07:09:05;;;;;;;;;;;;;;;20.53;72.15;102242.63;5050979;28;20016;-53
2021/07/22 07:11:32;;;;;;;;;;;;;;;20.58;69.38;102256.44;5035867;28;20015;-50
2021/07/22 07:13:59;;;;;;;;;;;;;;;20.53;68.92;102248.84;5050469;28;19925;-52
2021/07/22 07:16:26;;;;;;;;;;;;;;;20.55;69.00;102251.38;5048684;28;19951;-52
2021/07/22 07:18:52;;;;;;;;;;;;;;;20.57;69.02;102254.75;5052933;28;19920;-52
2021/07/22 07:21:19;;;;;;;;;;;;;;;20.48;68.79;102251.03;5052529;28;19935;-53
2021/07/22 07:23:47;;;;;;;;;;;;;;;20.48;68.67;102245.69;5052358;28;19924;-53
2021/07/22 07:26:14;;;;;;;;;;;;;;;20.51;69.02;102256.13;5049027;28;19931;-53
2021/07/22 07:28:40;;;;;;;;;;;;;;;20.58;68.47;102253.78;5051394;28;19927;-52
2021/07/22 07:31:07;;;;;;;;;;;;;;;20.63;67.93;102254.22;5051931;28;19936;-52
2021/07/22 07:33:34;;;;;;;;;;;;;;;20.70;68.12;102246.56;5053202;28;19920;-53
2021/07/22 07:36:01;;;;;;;;;;;;;;;20.90;68.92;102252.81;5053313;28;20039;-53
2021/07/22 07:38:27;;;;;;;;;;;;;;;21.03;67.12;102253.44;5053142;28;19927;-52
2021/07/22 07:40:54;;;;;;;;;;;;;;;21.08;66.88;102253.91;5051822;28;20001;-53
2021/07/22 07:43:21;;;;;;;;;;;;;;;21.06;66.74;102255.84;5050865;28;19920;-53
2021/07/22 07:45:47;;;;;;;;;;;;;;;21.20;67.01;102267.16;5048300;28;19929;-53
2021/07/22 07:48:14;;;;;;;;;;;;;;;21.28;67.35;102265.53;5051787;28;20397;-52
2021/07/22 07:50:41;;;;;;;;;;;;;;;21.28;66.60;102270.00;5052908;28;19921;-52
2021/07/22 07:53:14;;;;;;;;;;;;;;;21.37;66.70;102263.00;5051690;28;20316;-53
2021/07/22 07:55:41;;;;;;;;;;;;;;;21.52;66.53;102260.78;5051750;28;19921;-52
2021/07/22 07:58:07;;;;;;;;;;;;;;;21.64;65.07;102265.06;5051539;28;19928;-53
2021/07/22 08:00:34;;;;;;;;;;;;;;;21.85;65.52;102259.56;5052655;28;19920;-53
2021/07/22 08:03:01;;;;;;;;;;;;;;;21.82;63.65;102259.88;5051558;28;20410;-53
2021/07/22 08:05:28;;;;;;;;;;;;;;;21.69;64.06;102259.28;5052620;28;19947;-52
2021/07/22 08:07:54;;;;;;;;;;;;;;;21.78;63.66;102261.97;5052822;28;19974;-50
2021/07/22 08:10:21;;;;;;;;;;;;;;;21.74;63.41;102260.56;5052661;28;19927;-53
2021/07/22 08:12:48;;;;;;;;;;;;;;;21.66;63.74;102259.56;5051263;28;19932;-52
2021/07/22 08:15:15;;;;;;;;;;;;;;;21.68;62.55;102266.47;5050956;28;19931;-54
2021/07/22 08:17:41;;;;;;;;;;;;;;;21.69;63.50;102262.81;5045134;28;19927;-53
2021/07/22 08:20:09;;;;;;;;;;;;;;;21.73;64.11;102266.06;5047613;28;19933;-52
2021/07/22 08:22:37;;;;;;;;;;;;;;;21.49;63.49;102269.06;5052194;28;19920;-53
2021/07/22 08:25:04;;;;;;;;;;;;;;;21.42;63.51;102264.28;5052290;28;19947;-54
2021/07/22 08:27:31;;;;;;;;;;;;;;;21.55;63.66;102265.88;5052344;28;19943;-54
2021/07/22 08:29:58;;;;;;;;;;;;;;;21.47;63.22;102263.03;5052433;28;19920;-54
2021/07/22 08:32:25;;;;;;;;;;;;;;;21.51;63.44;102270.63;5051257;28;19974;-54
2021/07/22 08:34:52;;;;;;;;;;;;;;;21.64;61.71;102264.19;5050994;28;20015;-54
2021/07/22 08:37:19;;;;;;;;;;;;;;;21.68;61.22;102261.13;5052189;28;19927;-54
2021/07/22 08:39:46;;;;;;;;;;;;;;;21.83;60.47;102250.84;5054243;28;19990;-53
2021/07/22 08:42:12;;;;;;;;;;;;;;;22.26;61.37;102243.34;5055863;28;19974;-54
2021/07/22 08:44:41;;;;;;;;;;;;;;;22.62;59.54;102246.28;5052440;28;19925;-54
2021/07/22 08:47:08;;;;;;;;;;;;;;;22.73;59.35;102248.78;5051371;28;19921;-55
2021/07/22 08:49:35;;;;;;;;;;;;;;;22.70;59.22;102251.75;5038216;28;20418;-53
2021/07/22 08:52:06;;;;;;;;;;;;;;;22.86;56.57;102253.81;5054851;28;19975;-54
2021/07/22 08:54:33;;;;;;;;;;;;;;;22.85;54.74;102248.59;5055836;28;20383;-53
2021/07/22 08:57:01;;;;;;;;;;;;;;;22.79;55.55;102256.22;5054839;28;19924;-52
2021/07/22 08:59:28;;;;;;;;;;;;;;;22.82;56.01;102244.34;5055972;28;20294;-52
2021/07/22 09:01:55;;;;;;;;;;;;;;;22.76;57.55;102242.28;5053622;28;20375;-53
2021/07/22 09:04:22;;;;;;;;;;;;;;;22.85;57.41;102245.91;5050203;28;19931;-50
2021/07/22 09:06:48;;;;;;;;;;;;;;;23.05;56.31;102244.00;5054338;28;20291;-53
2021/07/22 09:09:16;;;;;;;;;;;;;;;23.08;54.78;102249.06;5055740;28;19940;-53
2021/07/22 09:11:53;;;;;;;;;;;;;;;23.24;54.87;102248.44;5054347;28;19943;-54
2021/07/22 09:14:20;;;;;;;;;;;;;;;23.17;54.85;102253.56;5053867;28;19925;-54
2021/07/22 09:16:47;;;;;;;;;;;;;;;23.35;53.78;102248.22;5049716;28;19944;-54
2021/07/22 09:19:32;;;;;;;;;;;;;;;23.56;54.00;102253.34;5054167;28;19924;-55
2021/07/22 09:21:59;;;;;;;;;;;;;;;23.77;52.59;102257.56;5051598;28;19925;-55
2021/07/22 09:24:26;;;;;;;;;;;;;;;23.80;52.19;102255.44;5051621;28;19920;-53
2021/07/22 09:26:53;;;;;;;;;;;;;;;23.57;52.02;102252.34;5055776;28;19920;-53
2021/07/22 09:29:20;;;;;;;;;;;;;;;23.90;53.73;102255.38;5055422;28;20346;-53
2021/07/22 09:31:46;;;;;;;;;;;;;;;23.93;50.93;102255.06;5053878;28;19986;-53
2021/07/22 09:34:23;;;;;;;;;;;;;;;24.24;50.71;102253.78;5050635;28;19935;-53
2021/07/22 09:36:50;;;;;;;;;;;;;;;24.48;50.74;102251.25;5050835;28;19929;-53
2021/07/22 09:39:20;;;;;;;;;;;;;;;24.56;49.26;102255.03;5055360;28;19924;-53
2021/07/22 09:41:57;;;;;;;;;;;;;;;24.46;50.01;102252.44;5053990;28;19928;-54
2021/07/22 09:44:34;;;;;;;;;;;;;;;24.35;50.75;102256.25;5055189;28;20298;-53
2021/07/22 09:47:01;;;;;;;;;;;;;;;24.21;50.80;102256.78;5054969;28;19921;-53
2021/07/22 09:49:31;;;;;;;;;;;;;;;24.35;49.70;102258.06;5055073;28;19921;-53
2021/07/22 09:52:07;;;;;;;;;;;;;;;24.25;50.33;102266.22;5055281;28;19927;-54
2021/07/22 09:54:35;;;;;;;;;;;;;;;24.54;49.63;102260.56;5053839;28;19924;-54
2021/07/22 09:57:02;;;;;;;;;;;;;;;24.60;50.13;102262.59;5055067;28;19921;-53
2021/07/22 09:59:30;;;;;;;;;;;;;;;24.69;48.92;102254.63;5037213;28;19921;-54
2021/07/22 10:02:02;;;;;;;;;;;;;;;24.66;49.42;102254.94;5037276;28;19921;-52
2021/07/22 10:04:30;;;;;;;;;;;;;;;24.87;48.47;102251.84;5037283;28;19920;-53
2021/07/22 10:06:57;;;;;;;;;;;;;;;24.72;49.00;102255.16;5054750;28;20387;-55
2021/07/22 10:09:23;;;;;;;;;;;;;;;24.67;48.16;102256.63;5053538;28;19925;-53
2021/07/22 10:11:50;;;;;;;;;;;;;;;25.00;47.46;102252.25;5053111;28;19952;-53
2021/07/22 10:14:18;;;;;;;;;;;;;;;24.85;46.52;102237.72;5049593;28;20054;-54
2021/07/22 10:16:45;;;;;;;;;;;;;;;25.09;47.39;102243.22;5048899;28;19927;-54
2021/07/22 10:19:11;;;;;;;;;;;;;;;25.19;45.24;102236.84;5053420;28;19974;-54
2021/07/22 10:21:38;;;;;;;;;;;;;;;25.26;46.11;102244.09;5053316;28;20380;-53
2021/07/22 10:24:05;;;;;;;;;;;;;;;25.56;46.73;102239.16;5051843;28;19928;-53
2021/07/22 10:26:39;;;;;;;;;;;;;;;25.36;44.79;102244.00;5050297;28;20307;-53
2021/07/22 10:29:06;;;;;;;;;;;;;;;25.44;45.14;102243.16;5053010;28;19920;-56
2021/07/22 10:31:33;;;;;;;;;;;;;;;25.70;44.97;102242.19;5053191;28;20379;-55
2021/07/22 10:34:00;;;;;;;;;;;;;;;25.74;45.24;102248.94;5054423;28;19974;-53
2021/07/22 10:36:27;;;;;;;;;;;;;;;25.79;44.01;102242.03;5036406;28;19921;-54
2021/07/22 10:38:53;;;;;;;;;;;;;;;25.81;43.87;102240.03;5053026;28;19970;-53
2021/07/22 10:41:34;;;;;;;;;;;;;;;26.10;45.44;102246.81;5054107;28;19921;-54
2021/07/22 10:44:01;;;;;;;;;;;;;;;25.83;43.90;102234.47;5054065;28;19942;-51
2021/07/22 10:46:47;;;;;;;;;;;;;;;25.80;44.12;102237.50;5053973;28;20368;-54
2021/07/22 10:49:14;;;;;;;;;;;;;;;25.73;44.45;102236.50;5053688;28;19921;-52
2021/07/22 10:51:41;;;;;;;;;;;;;;;25.72;43.52;102235.66;5053542;28;19968;-52
2021/07/22 10:54:07;;;;;;;;;;;;;;;25.84;43.88;102243.38;5050079;28;19974;-54
2021/07/22 10:56:43;;;;;;;;;;;;;;;25.75;44.46;102232.59;5051819;28;19929;-54
2021/07/22 10:59:10;;;;;;;;;;;;;;;25.92;43.50;102224.53;5053803;28;19947;-52
2021/07/22 11:01:43;;;;;;;;;;;;;;;25.88;44.17;102223.19;5053116;28;19920;-55
2021/07/22 11:04:30;;;;;;;;;;;;;;;26.08;43.46;102221.88;5049941;28;19921;-54
2021/07/22 11:06:59;;;;;;;;;;;;;;;25.95;45.10;102214.25;5050867;28;19921;-52
2021/07/22 11:09:54;;;;;;;;;;;;;;;25.86;45.01;102225.22;5053521;28;20390;-50
2021/07/22 11:12:48;;;;;;;;;;;;;;;25.86;44.58;102222.53;5053041;28;20015;-53
2021/07/22 11:15:36;;;;;;;;;;;;;;;25.76;44.55;102220.00;5050357;28;19921;-54
2021/07/22 11:18:21;;;;;;;;;;;;;;;25.66;44.27;102220.16;5050695;28;20018;-53
2021/07/22 11:20:48;;;;;;;;;;;;;;;25.97;43.84;102222.19;5053457;28;19921;-54
2021/07/22 11:23:15;;;;;;;;;;;;;;;25.89;44.30;102224.88;5052440;28;20015;-55
2021/07/22 11:25:45;;;;;;;;;;;;;;;25.83;44.42;102210.22;5050775;28;20375;-54
2021/07/22 11:28:13;;;;;;;;;;;;;;;25.89;44.44;102208.72;5034031;28;20011;-56
2021/07/22 11:30:40;;;;;;;;;;;;;;;25.95;43.39;102214.25;5050312;28;19971;-53
2021/07/22 11:33:16;;;;;;;;;;;;;;;26.12;44.64;102206.19;5047078;28;20422;-55
2021/07/22 11:35:58;;;;;;;;;;;;;;;26.56;44.81;102204.91;5051686;28;20056;-54
2021/07/22 11:38:25;;;;;;;;;;;;;;;26.81;43.21;102205.72;5053012;28;19943;-53
2021/07/22 11:40:52;;;;;;;;;;;;;;;27.26;42.73;102211.41;5053026;28;19950;-54
2021/07/22 11:43:38;;;;;;;;;;;;;;;27.24;42.68;102208.00;5049051;28;19920;-55
2021/07/22 11:46:06;;;;;;;;;;;;;;;27.19;41.61;102207.69;5049458;28;19963;-53
2021/07/22 11:48:33;;;;;;;;;;;;;;;27.28;40.84;102193.13;5053035;28;19927;-54
2021/07/22 11:51:06;;;;;;;;;;;;;;;26.97;41.58;102197.53;5053285;28;19951;-55
2021/07/22 11:53:33;;;;;;;;;;;;;;;26.94;41.94;102192.50;5050013;28;19928;-54
2021/07/22 11:56:08;;;;;;;;;;;;;;;27.49;40.86;102190.66;5048169;28;19967;-55
2021/07/22 11:58:35;;;;;;;;;;;;;;;27.32;40.69;102191.75;5051563;28;19924;-54
2021/07/22 12:01:02;;;;;;;;;;;;;;;27.29;40.15;102192.13;5048450;28;19971;-55
2021/07/22 12:03:28;;;;;;;;;;;;;;;27.20;40.91;102188.66;5049518;28;19920;-55
2021/07/22 12:05:55;;;;;;;;;;;;;;;27.30;40.68;102189.25;5052886;28;20421;-56
2021/07/22 12:08:22;;;;;;;;;;;;;;;27.40;40.53;102190.91;5052714;28;19924;-55
2021/07/22 12:10:49;;;;;;;;;;;;;;;27.12;41.70;102189.53;5051536;28;19921;-56
2021/07/22 12:13:16;;;;;;;;;;;;;;;27.50;40.06;102183.41;5050461;28;19920;-56
2021/07/22 12:15:44;;;;;;;;;;;;;;;28.04;37.67;102184.34;5051117;28;19921;-54
2021/07/22 12:18:12;;;;;;;;;;;;;;;28.40;38.38;102170.09;5034773;28;19924;-56
2021/07/22 12:20:39;;;;;;;;;;;;;;;28.12;38.43;102178.84;5052566;28;19967;-54
2021/07/22 12:23:24;;;;;;;;;;;;;;;27.85;39.50;102177.56;5052750;28;19928;-55
2021/07/22 12:25:54;;;;;;;;;;;;;;;27.64;40.45;102176.38;5052357;28;19924;-55
2021/07/22 12:28:21;;;;;;;;;;;;;;;27.49;39.58;102163.66;5051319;28;19928;-54
2021/07/22 12:30:48;;;;;;;;;;;;;;;27.78;39.82;102163.94;5052444;28;19921;-52
2021/07/22 12:33:20;;;;;;;;;;;;;;;28.21;38.00;102166.06;5049540;28;20043;-55
2021/07/22 12:35:47;;;;;;;;;;;;;;;28.72;37.47;102163.47;5049893;28;19936;-55
2021/07/22 12:38:14;;;;;;;;;;;;;;;28.95;37.31;102157.06;5051119;28;20383;-55